Time;durP1;ratioP1;P1;durP2;ratioP2;P2;SDS_P1;SDS_P2;PMS_P1;PMS_P2;Temp;Humidity;BMP_temperature;BMP_pressure;BME280_temperature;BME280_humidity;BME280_pressure;Samples;Min_cycle;Max_cycle;Signal;HPM_P1;HPM_P2
2023/10/06 00:01:51;;;;;;;14.02;4.57;;;14.10;92.60;;;;;;5087220;28;20025;-49
2023/10/06 00:04:19;;;;;;;13.07;4.88;;;14.20;92.60;;;;;;5074826;28;20077;-52
2023/10/06 00:06:48;;;;;;;13.82;4.32;;;14.20;92.50;;;;;;5093153;28;20042;-49
2023/10/06 00:09:25;;;;;;;9.45;4.35;;;14.10;92.50;;;;;;5094106;28;20062;-50
2023/10/06 00:11:54;;;;;;;11.23;5.72;;;14.10;92.60;;;;;;5090986;28;20028;-48
2023/10/06 00:14:38;;;;;;;14.70;5.28;;;14.10;92.60;;;;;;5093593;28;20074;-48
2023/10/06 00:17:17;;;;;;;13.23;6.00;;;14.10;92.50;;;;;;5091843;28;20334;-52
2023/10/06 00:19:52;;;;;;;9.18;5.25;;;14.10;92.60;;;;;;5076213;28;20732;-48
2023/10/06 00:22:21;;;;;;;18.58;5.00;;;14.20;92.50;;;;;;5079282;28;20081;-51
2023/10/06 00:24:59;;;;;;;11.82;5.78;;;14.10;92.50;;;;;;5092703;28;20028;-49
2023/10/06 00:27:29;;;;;;;10.93;5.20;;;14.10;92.50;;;;;;5093920;28;20096;-49
2023/10/06 00:30:11;;;;;;;9.73;4.88;;;14.10;92.50;;;;;;5089867;28;20047;-49
2023/10/06 00:32:40;;;;;;;14.65;5.82;;;14.10;92.50;;;;;;5094216;28;20039;-51
2023/10/06 00:35:30;;;;;;;12.77;5.43;;;14.10;92.50;;;;;;5093962;28;20076;-48
2023/10/06 00:38:10;;;;;;;12.65;5.43;;;14.10;92.50;;;;;;5092476;28;20043;-48
2023/10/06 00:40:39;;;;;;;12.00;5.72;;;14.10;92.30;;;;;;5080362;28;20039;-49
2023/10/06 00:43:15;;;;;;;16.60;5.85;;;14.10;92.30;;;;;;5094010;28;20028;-54
2023/10/06 00:45:44;;;;;;;10.65;5.22;;;14.10;92.20;;;;;;5090670;28;20556;-48
2023/10/06 00:48:14;;;;;;;11.25;4.88;;;14.20;92.20;;;;;;5052323;28;20485;-50
2023/10/06 00:50:43;;;;;;;;;;;14.10;92.10;;;;;;5055251;28;20105;-49
2023/10/06 00:53:13;;;;;;;13.32;5.22;;;14.10;92.00;;;;;;5067563;28;19965;-48
2023/10/06 00:55:44;;;;;;;11.85;4.65;;;14.20;91.90;;;;;;5052463;28;20212;-49
2023/10/06 00:58:11;;;;;;;9.07;5.10;;;14.10;91.90;;;;;;5063547;28;20036;-50
2023/10/06 01:00:38;;;;;;;11.23;5.65;;;14.10;91.90;;;;;;5071765;28;20031;-49
2023/10/06 01:03:14;;;;;;;10.80;4.95;;;14.10;91.90;;;;;;5072910;28;20024;-49
2023/10/06 01:05:45;;;;;;;14.88;5.57;;;14.20;91.70;;;;;;5072118;28;20170;-49
2023/10/06 01:08:13;;;;;;;15.63;5.53;;;14.20;91.70;;;;;;5084331;28;20036;-53
2023/10/06 01:10:40;;;;;;;12.60;5.32;;;14.10;91.60;;;;;;5072628;28;20105;-50
2023/10/06 01:13:12;;;;;;;10.23;5.20;;;14.10;91.70;;;;;;5071947;28;20027;-51
2023/10/06 01:15:49;;;;;;;8.55;5.03;;;14.10;91.80;;;;;;5071813;28;20033;-53
2023/10/06 01:18:23;;;;;;;11.20;5.63;;;14.10;91.70;;;;;;5073184;28;20048;-48
2023/10/06 01:21:08;;;;;;;14.27;6.63;;;14.10;91.50;;;;;;5056143;28;20103;-49
2023/10/06 01:23:38;;;;;;;10.43;4.80;;;14.10;91.60;;;;;;5057799;28;20354;-50
2023/10/06 01:26:08;;;;;;;12.48;5.28;;;14.00;91.50;;;;;;5070740;28;20029;-50
2023/10/06 01:28:35;;;;;;;13.45;5.82;;;14.00;91.60;;;;;;5072638;28;20048;-49
2023/10/06 01:31:05;;;;;;;14.75;6.40;;;13.90;91.40;;;;;;5072286;28;20361;-51
2023/10/06 01:33:30;;;;;;;10.40;5.35;;;13.90;91.30;;;;;;5068902;28;20024;-54
2023/10/06 01:35:59;;;;;;;10.30;5.38;;;13.90;91.20;;;;;;5072527;28;20024;-53
2023/10/06 01:38:29;;;;;;;15.05;6.05;;;13.80;91.20;;;;;;5052855;28;20041;-51
2023/10/06 01:41:01;;;;;;;16.95;7.07;;;13.80;91.30;;;;;;5066762;28;20056;-50
2023/10/06 01:43:29;;;;;;;9.65;6.05;;;13.80;91.30;;;;;;5052380;28;20028;-48
2023/10/06 01:45:59;;;;;;;10.77;5.68;;;13.80;91.20;;;;;;5060417;28;20031;-53
2023/10/06 01:48:33;;;;;;;;;;;13.70;91.30;;;;;;5071163;28;20055;-51
2023/10/06 01:51:00;;;;;;;9.50;5.45;;;13.70;91.20;;;;;;5071787;28;20011;-49
2023/10/06 01:53:32;;;;;;;10.73;5.65;;;13.70;91.30;;;;;;5055592;28;20343;-50
2023/10/06 01:56:01;;;;;;;9.48;5.28;;;13.60;91.30;;;;;;5072371;28;20363;-52
2023/10/06 01:58:28;;;;;;;14.40;6.45;;;13.60;91.30;;;;;;5072464;28;20099;-52
2023/10/06 02:00:57;;;;;;;10.68;5.40;;;13.60;91.30;;;;;;5071220;28;20077;-52
2023/10/06 02:03:26;;;;;;;12.47;5.87;;;13.60;91.50;;;;;;5071828;28;20039;-52
2023/10/06 02:05:59;;;;;;;11.57;5.85;;;13.50;91.50;;;;;;5071997;28;20102;-50
2023/10/06 02:08:30;;;;;;;10.77;5.45;;;13.50;91.50;;;;;;5063295;28;20032;-47
2023/10/06 02:11:01;;;;;;;;;;;13.50;91.60;;;;;;5071192;28;20114;-48
2023/10/06 02:13:31;;;;;;;11.68;5.72;;;13.50;91.60;;;;;;5071372;28;20241;-48
2023/10/06 02:16:03;;;;;;;11.77;6.40;;;13.50;91.70;;;;;;5071857;28;20024;-54
2023/10/06 02:18:36;;;;;;;12.70;5.82;;;13.50;91.70;;;;;;5066554;28;20035;-49
2023/10/06 02:21:16;;;;;;;13.23;6.03;;;13.50;91.70;;;;;;5052296;28;20083;-48
2023/10/06 02:23:44;;;;;;;10.40;5.65;;;13.50;91.60;;;;;;5060760;28;20167;-49
2023/10/06 02:26:12;;;;;;;10.25;6.63;;;13.50;91.80;;;;;;5052114;28;20029;-51
2023/10/06 02:28:48;;;;;;;14.10;5.78;;;13.60;91.80;;;;;;5053054;28;20749;-48
2023/10/06 02:31:21;;;;;;;12.38;5.88;;;13.60;91.60;;;;;;5071776;28;20105;-50
2023/10/06 02:33:50;;;;;;;13.30;6.32;;;13.60;91.60;;;;;;5071390;28;20024;-51
2023/10/06 02:36:21;;;;;;;11.45;5.90;;;13.60;91.50;;;;;;5069502;28;20029;-50
2023/10/06 02:39:06;;;;;;;11.00;5.47;;;13.70;91.60;;;;;;5052891;28;20378;-50
2023/10/06 02:41:34;;;;;;;13.90;6.35;;;13.60;91.40;;;;;;5051749;28;20497;-51
2023/10/06 02:44:22;;;;;;;10.45;6.30;;;13.70;91.50;;;;;;5055811;28;20043;-50
2023/10/06 02:46:52;;;;;;;11.48;6.13;;;13.60;91.50;;;;;;5070601;28;20070;-54
2023/10/06 02:49:31;;;;;;;12.50;6.72;;;13.60;91.50;;;;;;5090488;28;20024;-50
2023/10/06 02:52:45;;;;;;;13.70;6.40;;;13.70;91.50;;;;;;5078996;28;20033;-50
2023/10/06 02:57:38;;;;;;;11.35;6.18;;;13.70;91.50;;;;;;5084904;28;20472;-53
2023/10/06 03:00:51;;;;;;;12.65;6.57;;;13.70;91.30;;;;;;5091919;28;20032;-54
2023/10/06 03:02:56;;;;;;;13.68;5.35;;;13.70;91.30;;;;;;5065639;28;20044;-53
2023/10/06 03:05:38;;;;;;;;;;;13.70;91.40;;;;;;5090746;28;20027;-54
2023/10/06 03:08:09;;;;;;;11.63;6.85;;;13.70;91.40;;;;;;5091122;28;19936;-52
2023/10/06 03:10:44;;;;;;;12.23;7.25;;;13.80;91.50;;;;;;5084876;28;20040;-50
2023/10/06 03:13:43;;;;;;;13.38;6.80;;;13.80;91.50;;;;;;5089416;28;20032;-47
2023/10/06 03:16:19;;;;;;;14.57;7.70;;;13.70;91.50;;;;;;5080907;28;20024;-50
2023/10/06 03:18:52;;;;;;;16.17;8.27;;;13.70;91.60;;;;;;5086811;28;20024;-53
2023/10/06 03:21:22;;;;;;;15.68;9.30;;;13.70;91.60;;;;;;5087299;28;20020;-51
2023/10/06 03:23:57;;;;;;;15.05;8.23;;;13.70;91.70;;;;;;5090669;28;20036;-51
2023/10/06 03:26:34;;;;;;;13.48;7.93;;;13.70;91.70;;;;;;5092678;28;20449;-51
2023/10/06 03:29:28;;;;;;;17.85;9.30;;;13.70;91.70;;;;;;5093036;28;20028;-50
2023/10/06 03:31:56;;;;;;;11.60;7.57;;;13.70;91.80;;;;;;5094996;28;20016;-49
2023/10/06 03:34:23;;;;;;;13.30;9.00;;;13.70;92.00;;;;;;5095462;28;20062;-51
2023/10/06 03:36:53;;;;;;;16.48;8.82;;;13.70;91.90;;;;;;5095191;28;20091;-48
2023/10/06 03:39:28;;;;;;;14.98;9.65;;;13.70;91.90;;;;;;5075954;28;20024;-50
2023/10/06 03:42:06;;;;;;;16.63;9.43;;;13.80;92.00;;;;;;5095122;28;20028;-47
2023/10/06 03:44:34;;;;;;;19.38;9.77;;;13.70;92.10;;;;;;5094812;28;20043;-45
2023/10/06 03:47:07;;;;;;;14.57;7.32;;;13.70;92.10;;;;;;5094435;28;20056;-47
2023/10/06 03:49:35;;;;;;;16.67;8.65;;;13.80;92.10;;;;;;5093805;28;20120;-50
2023/10/06 03:52:03;;;;;;;15.32;7.72;;;13.80;92.10;;;;;;5077011;28;20063;-49
2023/10/06 03:54:32;;;;;;;18.60;9.68;;;13.80;92.00;;;;;;5084802;28;20469;-48
2023/10/06 03:57:00;;;;;;;14.98;9.27;;;13.80;92.00;;;;;;5074664;28;20028;-48
2023/10/06 03:59:27;;;;;;;11.15;8.52;;;13.80;92.00;;;;;;5074293;28;20056;-47
2023/10/06 04:01:55;;;;;;;15.13;9.35;;;13.80;91.80;;;;;;5094353;28;20114;-48
2023/10/06 04:04:24;;;;;;;13.87;8.73;;;13.80;91.90;;;;;;5094407;28;20422;-47
2023/10/06 04:06:50;;;;;;;12.00;8.90;;;13.80;92.00;;;;;;5094323;28;20027;-47
2023/10/06 04:09:21;;;;;;;12.82;7.88;;;13.80;92.00;;;;;;5086837;28;20509;-46
2023/10/06 04:11:47;;;;;;;14.50;8.82;;;13.80;92.10;;;;;;5081028;28;20032;-50
2023/10/06 04:14:13;;;;;;;19.00;8.18;;;13.80;92.00;;;;;;5075645;28;20030;-50
2023/10/06 04:16:45;;;;;;;15.80;8.98;;;13.90;91.80;;;;;;5094568;28;20040;-48
2023/10/06 04:19:20;;;;;;;16.35;7.47;;;13.90;91.80;;;;;;5093714;28;20042;-46
2023/10/06 04:21:50;;;;;;;14.82;7.88;;;13.90;91.80;;;;;;5089019;28;20032;-48
2023/10/06 04:24:18;;;;;;;14.60;8.55;;;13.90;91.70;;;;;;5091706;28;20032;-47
2023/10/06 04:26:46;;;;;;;15.52;8.32;;;13.90;91.80;;;;;;5094168;28;20024;-48
2023/10/06 04:29:13;;;;;;;14.98;8.48;;;13.90;91.70;;;;;;5094083;28;20055;-52
2023/10/06 04:31:55;;;;;;;17.33;8.32;;;13.90;91.70;;;;;;5085333;28;20388;-48
2023/10/06 04:34:27;;;;;;;15.05;8.95;;;13.90;91.70;;;;;;5077687;28;20342;-48
2023/10/06 04:36:56;;;;;;;15.13;9.10;;;13.90;91.60;;;;;;5092733;28;20027;-50
2023/10/06 04:39:26;;;;;;;14.88;9.65;;;13.90;91.50;;;;;;5093624;28;20067;-49
2023/10/06 04:41:55;;;;;;;16.20;9.43;;;13.90;91.40;;;;;;5076836;28;20384;-50
2023/10/06 04:44:21;;;;;;;14.68;8.27;;;13.90;91.40;;;;;;5088537;28;20461;-47
2023/10/06 04:46:50;;;;;;;18.25;8.85;;;13.90;91.40;;;;;;5083338;28;20048;-50
2023/10/06 04:49:28;;;;;;;16.33;8.70;;;13.90;91.40;;;;;;5059819;28;20123;-49
2023/10/06 04:52:00;;;;;;;20.00;8.80;;;13.90;91.40;;;;;;5073639;28;20441;-47
2023/10/06 04:54:27;;;;;;;19.83;8.07;;;13.90;91.40;;;;;;5093152;28;20024;-48
2023/10/06 04:56:57;;;;;;;20.73;8.93;;;13.90;91.50;;;;;;5093536;28;20028;-45
2023/10/06 04:59:23;;;;;;;15.73;7.57;;;13.90;91.40;;;;;;5092581;28;20067;-47
2023/10/06 05:01:50;;;;;;;15.75;8.45;;;13.90;91.40;;;;;;5069618;28;20032;-46
2023/10/06 05:04:19;;;;;;;16.30;9.50;;;14.00;91.40;;;;;;5093660;28;20024;-49
2023/10/06 05:06:46;;;;;;;16.67;7.50;;;13.90;91.50;;;;;;5084550;28;20028;-50
2023/10/06 05:09:21;;;;;;;16.55;8.90;;;14.00;91.60;;;;;;5093372;28;20270;-55
2023/10/06 05:11:48;;;;;;;14.25;8.65;;;14.00;91.60;;;;;;5069137;28;20109;-51
2023/10/06 05:14:16;;;;;;;17.33;8.38;;;14.00;91.90;;;;;;5085590;28;20043;-57
2023/10/06 05:16:44;;;;;;;20.42;9.00;;;14.00;91.90;;;;;;5092865;28;20461;-54
2023/10/06 05:19:11;;;;;;;13.98;8.02;;;14.00;92.10;;;;;;5073427;28;20119;-56
2023/10/06 05:21:38;;;;;;;16.27;9.27;;;13.90;92.20;;;;;;5072899;28;20039;-53
2023/10/06 05:24:10;;;;;;;14.35;8.32;;;13.90;92.40;;;;;;5082853;28;20047;-50
2023/10/06 05:26:37;;;;;;;14.85;9.15;;;13.90;92.50;;;;;;5086087;28;20166;-55
2023/10/06 05:29:03;;;;;;;13.52;9.20;;;13.90;92.80;;;;;;5086494;28;20028;-53
2023/10/06 05:31:30;;;;;;;15.63;9.13;;;13.90;92.90;;;;;;5086304;28;20047;-49
2023/10/06 05:33:59;;;;;;;19.77;9.07;;;13.90;92.90;;;;;;5087438;28;20028;-53
2023/10/06 05:36:27;;;;;;;12.63;9.48;;;13.90;93.00;;;;;;5092377;28;20036;-50
2023/10/06 05:38:55;;;;;;;19.23;10.95;;;13.90;93.00;;;;;;5086396;28;20024;-50
2023/10/06 05:41:21;;;;;;;20.20;10.30;;;13.90;93.10;;;;;;5085683;28;20109;-50
2023/10/06 05:43:49;;;;;;;19.50;10.90;;;13.90;93.00;;;;;;5074692;28;20473;-47
2023/10/06 05:46:17;;;;;;;20.90;11.32;;;13.90;93.00;;;;;;5087065;28;20024;-50
2023/10/06 05:48:44;;;;;;;18.05;11.05;;;13.90;93.00;;;;;;5091976;28;20554;-49
2023/10/06 05:51:14;;;;;;;16.85;10.65;;;13.90;93.00;;;;;;5092706;28;20036;-51
2023/10/06 05:53:44;;;;;;;18.75;11.70;;;13.90;93.00;;;;;;5091857;28;20024;-47
2023/10/06 05:56:16;;;;;;;15.95;11.00;;;13.90;93.10;;;;;;5090518;28;20043;-50
2023/10/06 05:58:43;;;;;;;18.60;12.77;;;13.90;93.10;;;;;;5090530;28;20380;-49
2023/10/06 06:01:10;;;;;;;23.25;13.50;;;13.90;93.10;;;;;;5089630;28;20027;-50
2023/10/06 06:03:44;;;;;;;16.90;11.57;;;13.90;93.10;;;;;;5080272;28;20070;-49
2023/10/06 06:06:14;;;;;;;24.73;12.90;;;13.90;93.20;;;;;;5063456;28;20089;-51
2023/10/06 06:08:51;;;;;;;28.48;12.27;;;13.90;93.00;;;;;;5090314;28;20063;-50
2023/10/06 06:11:18;;;;;;;18.10;13.35;;;13.90;92.90;;;;;;5084889;28;20025;-48
2023/10/06 06:13:47;;;;;;;18.58;12.20;;;13.90;92.80;;;;;;5090873;28;20749;-50
2023/10/06 06:16:15;;;;;;;14.80;12.20;;;13.90;92.80;;;;;;5087946;28;20036;-47
2023/10/06 06:18:42;;;;;;;23.77;12.13;;;13.90;92.70;;;;;;5081380;28;20151;-47
2023/10/06 06:21:08;;;;;;;13.45;11.43;;;13.90;92.60;;;;;;5073455;28;20036;-50
2023/10/06 06:23:36;;;;;;;20.40;13.25;;;14.00;92.90;;;;;;5093306;28;20024;-46
2023/10/06 06:26:03;;;;;;;16.17;13.32;;;14.00;92.70;;;;;;5090829;28;20469;-47
2023/10/06 06:28:32;;;;;;;18.27;12.35;;;14.00;92.60;;;;;;5088632;28;20028;-49
2023/10/06 06:31:04;;;;;;;20.35;11.55;;;14.00;92.50;;;;;;5079380;28;20433;-49
2023/10/06 06:33:35;;;;;;;18.70;11.52;;;14.00;92.30;;;;;;5087505;28;20465;-47
2023/10/06 06:36:04;;;;;;;22.45;12.38;;;13.90;92.40;;;;;;5086265;28;20036;-49
2023/10/06 06:38:39;;;;;;;;;;;14.00;92.40;;;;;;5091495;28;20024;-47
2023/10/06 06:41:19;;;;;;;18.15;10.55;;;14.00;92.40;;;;;;5089515;28;19912;-48
2023/10/06 06:43:46;;;;;;;24.73;12.80;;;14.10;92.30;;;;;;5091777;28;20052;-48
2023/10/06 06:46:16;;;;;;;18.00;12.68;;;14.10;92.10;;;;;;5093554;28;20040;-48
2023/10/06 06:48:53;;;;;;;18.15;10.95;;;14.10;91.90;;;;;;5088489;28;20067;-47
2023/10/06 06:51:30;;;;;;;20.88;11.00;;;14.20;91.80;;;;;;5091219;28;20023;-47
2023/10/06 06:53:59;;;;;;;19.45;10.73;;;14.20;91.90;;;;;;5080110;28;20037;-47
2023/10/06 06:56:31;;;;;;;15.55;11.20;;;14.20;91.90;;;;;;5088970;28;20353;-52
2023/10/06 06:59:02;;;;;;;15.70;10.77;;;14.20;91.80;;;;;;5084627;28;20127;-50
2023/10/06 07:01:33;;;;;;;16.50;11.27;;;14.20;91.90;;;;;;5094408;28;20035;-49
2023/10/06 07:04:00;;;;;;;21.65;11.43;;;14.30;91.70;;;;;;5087394;28;20062;-48
2023/10/06 07:06:30;;;;;;;21.73;11.77;;;14.30;91.60;;;;;;5095963;28;20361;-47
2023/10/06 07:08:58;;;;;;;14.95;10.18;;;14.40;91.60;;;;;;5058556;28;20052;-49
2023/10/06 07:11:27;;;;;;;17.42;10.30;;;14.40;91.40;;;;;;5095237;28;20101;-49
2023/10/06 07:13:59;;;;;;;21.42;10.43;;;14.40;91.10;;;;;;5087239;28;20449;-51
2023/10/06 07:16:28;;;;;;;16.15;9.95;;;14.40;90.90;;;;;;5076385;28;20068;-50
2023/10/06 07:18:55;;;;;;;17.67;9.50;;;14.40;91.10;;;;;;5094954;28;20042;-50
2023/10/06 07:21:26;;;;;;;13.55;9.25;;;14.40;91.00;;;;;;5095133;28;20024;-53
2023/10/06 07:23:56;;;;;;;14.02;9.18;;;14.50;90.90;;;;;;5090814;28;20032;-55
2023/10/06 07:26:23;;;;;;;17.95;10.98;;;14.50;91.00;;;;;;5092441;28;20048;-49
2023/10/06 07:28:59;;;;;;;10.73;8.77;;;14.60;90.70;;;;;;5069394;28;20123;-49
2023/10/06 07:31:40;;;;;;;15.05;10.27;;;14.60;90.60;;;;;;5090547;28;20074;-50
2023/10/06 07:34:07;;;;;;;15.32;10.07;;;14.60;90.30;;;;;;5094276;28;20024;-49
2023/10/06 07:36:35;;;;;;;13.85;9.80;;;14.60;90.40;;;;;;5094352;28;20020;-48
2023/10/06 07:39:08;;;;;;;17.05;9.65;;;14.70;90.40;;;;;;5095235;28;20039;-50
2023/10/06 07:41:37;;;;;;;15.73;10.20;;;14.70;90.30;;;;;;5076551;28;20124;-55
2023/10/06 07:44:14;;;;;;;17.58;9.82;;;14.70;90.20;;;;;;5094247;28;20032;-53
2023/10/06 07:46:42;;;;;;;16.13;9.85;;;14.70;90.30;;;;;;5091565;28;20040;-53
2023/10/06 07:49:08;;;;;;;17.85;9.00;;;14.80;90.20;;;;;;5093708;28;20134;-48
2023/10/06 07:51:34;;;;;;;17.00;9.23;;;14.80;90.00;;;;;;5094044;28;20508;-53
2023/10/06 07:54:03;;;;;;;12.85;8.48;;;14.80;90.00;;;;;;5095292;28;20114;-48
2023/10/06 07:56:33;;;;;;;21.23;9.52;;;14.80;90.10;;;;;;5078868;28;20032;-54
2023/10/06 07:59:05;;;;;;;15.68;9.18;;;14.90;90.00;;;;;;5093469;28;20472;-48
2023/10/06 08:01:35;;;;;;;19.27;9.00;;;14.90;89.60;;;;;;5067545;28;20046;-51
2023/10/06 08:04:03;;;;;;;13.13;8.45;;;14.90;89.80;;;;;;5093067;28;20040;-52
2023/10/06 08:06:31;;;;;;;18.00;9.40;;;14.90;90.10;;;;;;5094515;28;20027;-52
2023/10/06 08:09:00;;;;;;;15.13;8.90;;;14.90;90.10;;;;;;5082240;28;20074;-48
2023/10/06 08:11:33;;;;;;;14.40;9.35;;;15.00;89.60;;;;;;5092872;28;20453;-52
2023/10/06 08:13:58;;;;;;;16.55;9.07;;;15.00;89.60;;;;;;5091503;28;20024;-53
2023/10/06 08:16:26;;;;;;;13.85;8.65;;;15.10;89.60;;;;;;5094283;28;20028;-53
2023/10/06 08:18:54;;;;;;;17.50;10.15;;;15.20;89.60;;;;;;5090164;28;20029;-55
2023/10/06 08:21:22;;;;;;;13.88;8.57;;;15.20;89.30;;;;;;5093992;28;20036;-52
2023/10/06 08:23:53;;;;;;;16.95;8.57;;;15.20;89.20;;;;;;5088948;28;20031;-53
2023/10/06 08:26:25;;;;;;;15.43;9.55;;;15.10;89.00;;;;;;5093981;28;20035;-50
2023/10/06 08:28:54;;;;;;;13.05;7.15;;;15.10;89.20;;;;;;5082780;28;20130;-54
2023/10/06 08:31:24;;;;;;;17.63;7.85;;;15.20;89.30;;;;;;5094282;28;20104;-53
2023/10/06 08:33:51;;;;;;;14.52;8.18;;;15.10;89.20;;;;;;5092305;28;20032;-51
2023/10/06 08:36:18;;;;;;;14.35;8.60;;;15.10;89.50;;;;;;5078792;28;20028;-55
2023/10/06 08:38:46;;;;;;;17.27;8.07;;;15.20;89.50;;;;;;5074204;28;20020;-54
2023/10/06 08:41:16;;;;;;;14.43;9.17;;;15.20;89.30;;;;;;5093160;28;20111;-54
2023/10/06 08:43:44;;;;;;;8.87;6.93;;;15.20;89.40;;;;;;5093550;28;20061;-52
2023/10/06 08:46:34;;;;;;;20.35;8.75;;;15.20;89.20;;;;;;5075970;28;20044;-51
2023/10/06 08:49:02;;;;;;;13.88;8.13;;;15.10;89.60;;;;;;5093782;28;20044;-51
2023/10/06 08:51:32;;;;;;;14.30;8.40;;;15.10;89.70;;;;;;5089587;28;20051;-49
2023/10/06 08:54:02;;;;;;;16.90;8.70;;;15.10;89.90;;;;;;5091666;28;20399;-53
2023/10/06 08:56:33;;;;;;;15.10;8.55;;;15.00;89.90;;;;;;5093848;28;20036;-54
2023/10/06 08:59:01;;;;;;;15.25;9.20;;;15.10;90.00;;;;;;5090820;28;20059;-52
2023/10/06 09:01:29;;;;;;;15.45;8.68;;;15.20;89.80;;;;;;5086581;28;20042;-49
2023/10/06 09:04:03;;;;;;;15.85;8.55;;;15.10;89.80;;;;;;5088463;28;20110;-52
2023/10/06 09:06:32;;;;;;;12.63;8.10;;;15.10;90.10;;;;;;5081438;28;20051;-52
2023/10/06 09:08:58;;;;;;;13.18;8.50;;;15.10;90.10;;;;;;5091916;28;20078;-54
2023/10/06 09:11:42;;;;;;;16.33;9.52;;;15.10;90.10;;;;;;5093078;28;20471;-53
2023/10/06 09:14:12;;;;;;;24.98;10.30;;;15.10;90.50;;;;;;5088167;28;20035;-54
2023/10/06 09:16:52;;;;;;;18.63;9.23;;;15.10;90.50;;;;;;5091945;28;20441;-54
2023/10/06 09:19:18;;;;;;;12.52;9.57;;;15.20;90.70;;;;;;5073541;28;20115;-49
2023/10/06 09:22:06;;;;;;;16.65;9.48;;;15.10;90.60;;;;;;5083581;28;20428;-52
2023/10/06 09:24:39;;;;;;;13.73;10.73;;;15.20;90.90;;;;;;5087057;28;20146;-54
2023/10/06 09:27:21;;;;;;;16.38;10.60;;;15.30;90.80;;;;;;5092044;28;20036;-54
2023/10/06 09:30:10;;;;;;;15.45;11.00;;;15.20;90.80;;;;;;5074707;28;20044;-50
2023/10/06 09:32:39;;;;;;;15.95;10.57;;;15.30;91.10;;;;;;5063759;28;20357;-51
2023/10/06 09:35:37;;;;;;;14.60;10.50;;;15.30;90.90;;;;;;5070788;28;20028;-53
2023/10/06 09:38:13;;;;;;;16.60;10.32;;;15.30;91.00;;;;;;5039851;28;20037;-53
2023/10/06 09:40:58;;;;;;;17.83;10.55;;;15.30;91.00;;;;;;5075727;28;20157;-52
2023/10/06 09:43:27;;;;;;;18.67;11.35;;;15.30;91.10;;;;;;5071014;28;20036;-51
2023/10/06 09:45:57;;;;;;;14.60;10.77;;;15.40;91.20;;;;;;5084521;28;20020;-52
2023/10/06 09:48:33;;;;;;;12.70;9.48;;;15.40;91.20;;;;;;5078072;28;20059;-54
2023/10/06 09:51:07;;;;;;;13.20;10.35;;;15.40;91.10;;;;;;5078600;28;20047;-52
2023/10/06 09:53:40;;;;;;;19.00;10.98;;;15.40;91.10;;;;;;5082224;28;20024;-54
2023/10/06 09:56:12;;;;;;;14.98;10.07;;;15.50;91.30;;;;;;5088444;28;20059;-53
2023/10/06 09:58:54;;;;;;;17.35;12.18;;;15.50;91.20;;;;;;5059619;28;20062;-50
2023/10/06 10:01:24;;;;;;;15.73;10.25;;;15.40;91.30;;;;;;5054467;28;20044;-50
2023/10/06 10:03:57;;;;;;;20.20;12.18;;;15.40;91.50;;;;;;5090638;28;20061;-52
2023/10/06 10:06:27;;;;;;;19.33;11.88;;;15.40;91.60;;;;;;5090983;28;20027;-53
2023/10/06 10:08:56;;;;;;;17.17;12.15;;;15.40;91.60;;;;;;5090243;28;20052;-53
2023/10/06 10:11:42;;;;;;;18.52;11.23;;;15.40;91.60;;;;;;5090693;28;20035;-50
2023/10/06 10:14:29;;;;;;;12.90;10.98;;;15.50;91.50;;;;;;5089973;28;20028;-50
2023/10/06 10:17:13;;;;;;;11.63;10.00;;;15.60;91.60;;;;;;5079477;28;20081;-49
2023/10/06 10:19:45;;;;;;;17.13;11.27;;;15.80;91.60;;;;;;5087641;28;20032;-51
2023/10/06 10:22:13;;;;;;;21.60;10.98;;;15.90;91.30;;;;;;5060078;28;20060;-54
2023/10/06 10:24:43;;;;;;;11.82;9.30;;;16.00;91.00;;;;;;5089549;28;20071;-51
2023/10/06 10:27:18;;;;;;;21.20;11.52;;;16.10;90.80;;;;;;5090458;28;20016;-51
2023/10/06 10:29:47;;;;;;;17.50;10.43;;;16.20;90.70;;;;;;5089468;28;20024;-53
2023/10/06 10:32:23;;;;;;;12.55;10.07;;;16.30;90.40;;;;;;5090220;28;20052;-53
2023/10/06 10:35:16;;;;;;;12.82;9.45;;;16.40;90.40;;;;;;5086860;28;20066;-53
2023/10/06 10:37:59;;;;;;;10.93;9.70;;;16.40;90.00;;;;;;5095578;28;20375;-53
2023/10/06 10:40:29;;;;;;;14.43;9.15;;;16.50;89.70;;;;;;5093961;28;20028;-52
2023/10/06 10:43:06;;;;;;;12.40;9.27;;;16.60;89.60;;;;;;5084900;28;20020;-50
2023/10/06 10:45:43;;;;;;;12.88;9.73;;;16.60;89.50;;;;;;5093335;28;20024;-54
2023/10/06 10:48:21;;;;;;;12.77;9.25;;;16.70;89.20;;;;;;5079734;28;20488;-51
2023/10/06 10:51:11;;;;;;;16.52;8.95;;;16.60;89.30;;;;;;5054354;28;20051;-51
2023/10/06 10:53:43;;;;;;;15.93;10.63;;;16.60;89.10;;;;;;5051324;28;20103;-50
2023/10/06 10:56:28;;;;;;;25.73;10.95;;;16.70;89.20;;;;;;5051108;28;20029;-52
2023/10/06 10:58:56;;;;;;;15.48;9.85;;;16.70;88.90;;;;;;5049889;28;20024;-52
2023/10/06 11:01:24;;;;;;;14.15;8.65;;;16.50;88.90;;;;;;5048638;28;20079;-53
2023/10/06 11:04:36;;;;;;;13.23;8.75;;;16.60;89.30;;;;;;5052514;28;20040;-52
2023/10/06 11:07:19;;;;;;;18.17;9.98;;;16.60;88.90;;;;;;5036337;28;20394;-53
2023/10/06 11:09:52;;;;;;;18.45;9.60;;;16.60;88.90;;;;;;5049090;28;20029;-50
2023/10/06 11:12:36;;;;;;;15.15;9.13;;;16.80;88.80;;;;;;5052518;28;20477;-53
2023/10/06 11:15:15;;;;;;;12.05;8.43;;;16.90;88.30;;;;;;5035008;28;20025;-51
2023/10/06 11:17:46;;;;;;;11.82;8.63;;;16.90;88.50;;;;;;5047491;28;20053;-51
2023/10/06 11:20:13;;;;;;;13.10;8.50;;;17.10;88.10;;;;;;5050872;28;20495;-51
2023/10/06 11:23:03;;;;;;;17.73;8.35;;;17.20;87.50;;;;;;5054399;28;20437;-54
2023/10/06 11:25:32;;;;;;;17.25;9.60;;;17.40;87.90;;;;;;5035771;28;20366;-51
2023/10/06 11:28:12;;;;;;;14.95;7.75;;;17.60;87.40;;;;;;5050773;28;20071;-55
2023/10/06 11:30:42;;;;;;;12.68;7.40;;;17.60;86.90;;;;;;5037845;28;20033;-54
2023/10/06 11:33:13;;;;;;;14.90;7.72;;;17.70;86.80;;;;;;5046388;28;20029;-53
2023/10/06 11:35:41;;;;;;;11.40;5.97;;;17.80;85.90;;;;;;5050047;28;20044;-53
2023/10/06 11:38:11;;;;;;;14.93;7.75;;;17.90;86.00;;;;;;5042744;28;20055;-52
2023/10/06 11:40:40;;;;;;;15.20;7.97;;;17.90;86.10;;;;;;5049078;28;20070;-52
2023/10/06 11:43:30;;;;;;;14.88;8.35;;;18.00;86.30;;;;;;5039206;28;20025;-52
2023/10/06 11:46:05;;;;;;;14.32;6.30;;;17.90;85.50;;;;;;5043803;28;20501;-55
2023/10/06 11:48:36;;;;;;;18.58;7.68;;;18.10;86.30;;;;;;5081642;28;20056;-55
2023/10/06 11:51:08;;;;;;;15.00;6.95;;;18.20;85.90;;;;;;5087180;28;20028;-54
2023/10/06 11:53:35;;;;;;;13.23;6.18;;;18.30;85.50;;;;;;5092616;28;20063;-53
2023/10/06 11:56:15;;;;;;;13.65;7.70;;;18.30;85.30;;;;;;5086674;28;20484;-51
2023/10/06 11:58:45;;;;;;;14.60;6.22;;;18.30;85.10;;;;;;5076622;28;20039;-53
2023/10/06 12:01:45;;;;;;;13.23;6.65;;;18.10;85.10;;;;;;5091892;28;20027;-54
2023/10/06 12:04:31;;;;;;;11.07;5.53;;;18.10;85.50;;;;;;5088240;28;20438;-55
2023/10/06 12:07:02;;;;;;;10.38;6.30;;;18.00;85.70;;;;;;5094526;28;20105;-50
2023/10/06 12:09:29;;;;;;;12.45;6.60;;;17.90;85.40;;;;;;5095658;28;20051;-53
2023/10/06 12:11:59;;;;;;;11.82;5.22;;;17.90;85.60;;;;;;5078885;28;20060;-54
2023/10/06 12:14:30;;;;;;;14.38;5.93;;;17.90;86.10;;;;;;5093454;28;20051;-54
2023/10/06 12:16:58;;;;;;;13.77;5.68;;;17.80;86.40;;;;;;5072250;28;20024;-52
2023/10/06 12:19:26;;;;;;;12.57;5.95;;;17.70;86.50;;;;;;5077650;28;20047;-55
2023/10/06 12:21:55;;;;;;;12.32;6.20;;;17.70;86.40;;;;;;5081532;28;20032;-54
2023/10/06 12:24:22;;;;;;;12.23;5.45;;;17.50;86.50;;;;;;5094047;28;20055;-54
2023/10/06 12:26:50;;;;;;;13.82;5.85;;;17.50;86.50;;;;;;5094391;28;20024;-49
2023/10/06 12:29:18;;;;;;;11.07;6.15;;;17.50;86.50;;;;;;5094203;28;20060;-53
2023/10/06 12:31:46;;;;;;;10.43;5.68;;;17.50;86.90;;;;;;5084527;28;20038;-55
2023/10/06 12:34:15;;;;;;;12.38;6.97;;;17.40;86.90;;;;;;5087992;28;20027;-55
2023/10/06 12:36:49;;;;;;;17.10;6.55;;;17.40;87.20;;;;;;5093562;28;20031;-55
2023/10/06 12:39:33;;;;;;;13.88;6.07;;;17.40;87.50;;;;;;5073217;28;20155;-54
2023/10/06 12:42:03;;;;;;;14.35;6.10;;;17.40;87.50;;;;;;5086795;28;20036;-53
2023/10/06 12:44:30;;;;;;;12.20;6.40;;;17.40;87.50;;;;;;5087115;28;20139;-53
2023/10/06 12:47:03;;;;;;;13.70;5.75;;;17.30;87.60;;;;;;5089911;28;20132;-53
2023/10/06 12:49:32;;;;;;;12.05;6.28;;;17.40;87.70;;;;;;5089293;28;20127;-49
2023/10/06 12:51:59;;;;;;;13.98;6.32;;;17.40;87.80;;;;;;5089358;28;20043;-53
2023/10/06 12:54:29;;;;;;;11.48;6.45;;;17.40;87.90;;;;;;5078464;28;20044;-51
2023/10/06 12:56:57;;;;;;;14.55;7.32;;;17.40;88.00;;;;;;5089365;28;20024;-54
2023/10/06 12:59:32;;;;;;;20.30;8.00;;;17.40;88.00;;;;;;5090880;28;20132;-50
2023/10/06 13:02:04;;;;;;;15.20;5.93;;;17.40;88.10;;;;;;5090697;28;20028;-55
2023/10/06 13:04:31;;;;;;;17.42;7.30;;;17.30;88.20;;;;;;5089135;28;20024;-52